Brookfield, Wisconsin
Current Conditions -  °F | °C
As of 4:35 AM on Friday 28 Nov 2014 (Local Time) from KUES Reporting Station
Overcast Overcast  
Wind Chill:   Ceiling: 5500
Heat Index: 14°   Visibility: 10mi
Dew Point:   Wind: 6mph
Humidity: 79%   Direction: 140°SE
Pressure: 30.29"   Gusts: NA
Location:  43.06°N, 88.13°W
Report Text: KUES 281035Z AUTO 14005KT 10SM SCT048 OVC055 M10/M13 A3029 RMK AO2
Loading
Personal Weather Stations






























Interactive Weather Map New forecast layout! Learn more

10-Day Weather Forecast

Advertisements
Track Severe Weather on mobile